sensor_id;sensor_type;location;lat;lon;timestamp;pressure;altitude;pressure_sealevel;temperature;humidity
43824;BME280;29470;53.550;9.926;2023-04-24T00:04:59;99615.44;;;16.29;76.59
43824;BME280;29470;53.550;9.926;2023-04-24T00:10:05;99587.16;;;16.45;75.81
43824;BME280;29470;53.550;9.926;2023-04-24T00:15:10;99580.84;;;16.37;75.72
43824;BME280;29470;53.550;9.926;2023-04-24T00:20:13;99563.56;;;16.40;76.74
43824;BME280;29470;53.550;9.926;2023-04-24T00:25:16;99561.03;;;16.43;76.95
43824;BME280;29470;53.550;9.926;2023-04-24T00:30:20;99548.31;;;16.56;75.70
43824;BME280;29470;53.550;9.926;2023-04-24T00:35:23;99551.44;;;16.42;76.23
43824;BME280;29470;53.550;9.926;2023-04-24T00:40:26;99547.66;;;16.64;76.34
43824;BME280;29470;53.550;9.926;2023-04-24T00:45:31;99547.16;;;16.44;77.29
43824;BME280;29470;53.550;9.926;2023-04-24T00:50:35;99547.41;;;16.22;78.51
43824;BME280;29470;53.550;9.926;2023-04-24T00:55:38;99539.66;;;15.93;79.70
43824;BME280;29470;53.550;9.926;2023-04-24T01:00:43;99550.13;;;15.94;79.83
43824;BME280;29470;53.550;9.926;2023-04-24T01:05:47;99551.44;;;15.80;79.91
43824;BME280;29470;53.550;9.926;2023-04-24T01:10:52;99554.75;;;15.74;80.43
43824;BME280;29470;53.550;9.926;2023-04-24T01:15:56;99554.44;;;15.63;79.86
43824;BME280;29470;53.550;9.926;2023-04-24T01:21:03;99552.50;;;15.57;80.15
43824;BME280;29470;53.550;9.926;2023-04-24T01:26:08;99545.31;;;15.78;79.90
43824;BME280;29470;53.550;9.926;2023-04-24T01:31:11;99544.56;;;15.82;78.33
43824;BME280;29470;53.550;9.926;2023-04-24T01:36:14;99541.00;;;15.80;78.40
43824;BME280;29470;53.550;9.926;2023-04-24T01:41:19;99537.69;;;15.55;78.04
43824;BME280;29470;53.550;9.926;2023-04-24T01:46:22;99534.13;;;15.82;76.67
43824;BME280;29470;53.550;9.926;2023-04-24T01:51:25;99538.06;;;15.67;75.96
43824;BME280;29470;53.550;9.926;2023-04-24T01:56:30;99537.63;;;15.53;78.48
43824;BME280;29470;53.550;9.926;2023-04-24T02:01:34;99525.50;;;15.54;75.45
43824;BME280;29470;53.550;9.926;2023-04-24T02:06:38;99518.56;;;15.25;76.34
43824;BME280;29470;53.550;9.926;2023-04-24T02:11:42;99516.97;;;15.30;75.10
43824;BME280;29470;53.550;9.926;2023-04-24T02:16:45;99508.03;;;14.93;76.22
43824;BME280;29470;53.550;9.926;2023-04-24T02:21:48;99512.41;;;14.94;75.82
43824;BME280;29470;53.550;9.926;2023-04-24T02:26:52;99508.50;;;14.81;75.95
43824;BME280;29470;53.550;9.926;2023-04-24T02:31:55;99501.50;;;14.79;76.30
43824;BME280;29470;53.550;9.926;2023-04-24T02:36:58;99519.31;;;14.94;76.18
43824;BME280;29470;53.550;9.926;2023-04-24T02:42:02;99515.69;;;14.88;77.18
43824;BME280;29470;53.550;9.926;2023-04-24T02:47:05;99509.75;;;14.67;78.81
43824;BME280;29470;53.550;9.926;2023-04-24T02:52:09;99508.28;;;14.73;78.21
43824;BME280;29470;53.550;9.926;2023-04-24T02:57:13;99511.38;;;14.63;79.10
43824;BME280;29470;53.550;9.926;2023-04-24T03:02:17;99498.63;;;14.71;77.59
43824;BME280;29470;53.550;9.926;2023-04-24T03:07:20;99498.31;;;14.62;78.03
43824;BME280;29470;53.550;9.926;2023-04-24T03:12:25;99494.94;;;14.38;78.67
43824;BME280;29470;53.550;9.926;2023-04-24T03:17:27;99495.50;;;14.29;78.86
43824;BME280;29470;53.550;9.926;2023-04-24T03:22:30;99499.41;;;14.42;77.61
43824;BME280;29470;53.550;9.926;2023-04-24T03:27:36;99506.31;;;14.16;78.12
43824;BME280;29470;53.550;9.926;2023-04-24T03:32:46;99503.31;;;14.04;78.70
43824;BME280;29470;53.550;9.926;2023-04-24T03:37:54;99510.91;;;14.23;77.09
43824;BME280;29470;53.550;9.926;2023-04-24T03:43:18;99506.97;;;14.09;76.90
43824;BME280;29470;53.550;9.926;2023-04-24T03:48:21;99505.25;;;13.85;77.87
43824;BME280;29470;53.550;9.926;2023-04-24T03:53:25;99514.44;;;13.52;77.16
43824;BME280;29470;53.550;9.926;2023-04-24T03:58:30;99503.59;;;13.87;75.38
43824;BME280;29470;53.550;9.926;2023-04-24T04:03:34;99498.22;;;13.58;73.81
43824;BME280;29470;53.550;9.926;2023-04-24T04:08:37;99493.91;;;13.83;70.76
43824;BME280;29470;53.550;9.926;2023-04-24T04:13:41;99484.06;;;14.24;68.63
43824;BME280;29470;53.550;9.926;2023-04-24T04:18:44;99488.31;;;13.96;68.48
43824;BME280;29470;53.550;9.926;2023-04-24T04:23:47;99488.09;;;14.16;66.60
43824;BME280;29470;53.550;9.926;2023-04-24T04:29:01;99494.56;;;14.02;66.96
43824;BME280;29470;53.550;9.926;2023-04-24T04:34:05;99500.69;;;14.29;65.41
43824;BME280;29470;53.550;9.926;2023-04-24T04:39:09;99506.22;;;14.13;65.74
43824;BME280;29470;53.550;9.926;2023-04-24T04:44:39;99511.22;;;14.07;65.82
43824;BME280;29470;53.550;9.926;2023-04-24T04:49:46;99512.19;;;15.15;62.60
43824;BME280;29470;53.550;9.926;2023-04-24T04:54:53;99519.53;;;15.00;60.64
43824;BME280;29470;53.550;9.926;2023-04-24T05:00:05;99508.59;;;15.12;60.11
43824;BME280;29470;53.550;9.926;2023-04-24T05:05:18;99498.91;;;14.79;60.46
43824;BME280;29470;53.550;9.926;2023-04-24T05:10:22;99513.16;;;14.64;61.44
43824;BME280;29470;53.550;9.926;2023-04-24T05:15:29;99500.25;;;14.67;61.25
43824;BME280;29470;53.550;9.926;2023-04-24T05:20:34;99509.72;;;14.91;60.46
43824;BME280;29470;53.550;9.926;2023-04-24T05:25:38;99512.28;;;15.19;60.00
43824;BME280;29470;53.550;9.926;2023-04-24T05:30:47;99502.03;;;14.96;59.93
43824;BME280;29470;53.550;9.926;2023-04-24T05:35:51;99504.94;;;15.05;59.89
43824;BME280;29470;53.550;9.926;2023-04-24T05:40:55;99505.81;;;15.35;58.86
43824;BME280;29470;53.550;9.926;2023-04-24T05:45:59;99513.25;;;15.51;58.20
43824;BME280;29470;53.550;9.926;2023-04-24T05:51:02;99509.03;;;15.55;57.40
43824;BME280;29470;53.550;9.926;2023-04-24T05:56:06;99517.34;;;15.14;59.09
43824;BME280;29470;53.550;9.926;2023-04-24T06:01:11;99513.19;;;16.79;53.94
43824;BME280;29470;53.550;9.926;2023-04-24T06:06:14;99506.19;;;19.60;46.73
43824;BME280;29470;53.550;9.926;2023-04-24T06:11:17;99509.28;;;19.27;46.55
43824;BME280;29470;53.550;9.926;2023-04-24T06:16:22;99503.53;;;20.32;44.80
43824;BME280;29470;53.550;9.926;2023-04-24T06:21:33;99511.44;;;20.35;44.29
43824;BME280;29470;53.550;9.926;2023-04-24T06:26:36;99518.28;;;21.27;41.88
43824;BME280;29470;53.550;9.926;2023-04-24T06:31:43;99515.16;;;22.03;41.16
43824;BME280;29470;53.550;9.926;2023-04-24T06:36:46;99511.66;;;22.07;41.33
43824;BME280;29470;53.550;9.926;2023-04-24T06:41:49;99517.72;;;23.71;36.89
43824;BME280;29470;53.550;9.926;2023-04-24T06:46:56;99509.16;;;26.32;34.70
43824;BME280;29470;53.550;9.926;2023-04-24T06:51:59;99523.97;;;24.97;34.95
43824;BME280;29470;53.550;9.926;2023-04-24T06:57:02;99518.66;;;25.00;34.87
43824;BME280;29470;53.550;9.926;2023-04-24T07:02:06;99510.00;;;26.91;31.95
43824;BME280;29470;53.550;9.926;2023-04-24T07:07:09;99515.56;;;26.17;32.44
43824;BME280;29470;53.550;9.926;2023-04-24T07:12:14;99514.09;;;24.00;34.46
43824;BME280;29470;53.550;9.926;2023-04-24T07:17:20;99519.78;;;25.62;33.31
43824;BME280;29470;53.550;9.926;2023-04-24T07:22:23;99515.44;;;24.63;34.94
43824;BME280;29470;53.550;9.926;2023-04-24T07:27:26;99527.47;;;22.13;38.23
43824;BME280;29470;53.550;9.926;2023-04-24T07:32:30;99532.72;;;22.16;37.24
43824;BME280;29470;53.550;9.926;2023-04-24T07:37:33;99525.81;;;22.49;38.04
43824;BME280;29470;53.550;9.926;2023-04-24T07:42:36;99534.06;;;24.42;35.11
43824;BME280;29470;53.550;9.926;2023-04-24T07:47:41;99536.19;;;23.75;36.25
43824;BME280;29470;53.550;9.926;2023-04-24T07:52:45;99552.78;;;24.08;35.42
43824;BME280;29470;53.550;9.926;2023-04-24T07:57:48;99572.91;;;21.69;39.60
43824;BME280;29470;53.550;9.926;2023-04-24T08:02:53;99571.44;;;18.33;45.15
43824;BME280;29470;53.550;9.926;2023-04-24T08:07:56;99574.16;;;17.95;46.47
43824;BME280;29470;53.550;9.926;2023-04-24T08:12:59;99572.44;;;18.91;45.30
43824;BME280;29470;53.550;9.926;2023-04-24T08:18:03;99573.44;;;18.45;46.93
43824;BME280;29470;53.550;9.926;2023-04-24T08:23:06;99578.56;;;18.91;45.59
43824;BME280;29470;53.550;9.926;2023-04-24T08:28:09;99585.25;;;18.74;45.75
43824;BME280;29470;53.550;9.926;2023-04-24T08:33:13;99585.06;;;19.73;43.50
43824;BME280;29470;53.550;9.926;2023-04-24T08:38:16;99586.94;;;19.21;44.99
43824;BME280;29470;53.550;9.926;2023-04-24T08:43:21;99587.53;;;18.53;44.96
43824;BME280;29470;53.550;9.926;2023-04-24T08:48:27;99596.69;;;18.31;47.01
43824;BME280;29470;53.550;9.926;2023-04-24T08:53:33;99596.69;;;18.31;46.77
43824;BME280;29470;53.550;9.926;2023-04-24T08:58:36;99596.66;;;19.28;44.58
43824;BME280;29470;53.550;9.926;2023-04-24T09:03:40;99587.66;;;19.72;43.56
43824;BME280;29470;53.550;9.926;2023-04-24T09:08:45;99595.97;;;20.85;41.41
43824;BME280;29470;53.550;9.926;2023-04-24T09:13:48;99597.88;;;19.53;44.01
43824;BME280;29470;53.550;9.926;2023-04-24T09:18:52;99604.75;;;19.43;44.55
43824;BME280;29470;53.550;9.926;2023-04-24T09:24:00;99604.28;;;18.63;45.53
43824;BME280;29470;53.550;9.926;2023-04-24T09:29:04;99615.25;;;18.91;45.65
43824;BME280;29470;53.550;9.926;2023-04-24T09:34:09;99613.53;;;18.44;46.08
43824;BME280;29470;53.550;9.926;2023-04-24T09:39:15;99614.53;;;18.98;44.70
43824;BME280;29470;53.550;9.926;2023-04-24T09:44:20;99629.81;;;17.13;48.58
43824;BME280;29470;53.550;9.926;2023-04-24T09:49:25;99628.94;;;17.89;48.28
43824;BME280;29470;53.550;9.926;2023-04-24T09:54:28;99625.75;;;17.62;48.33
43824;BME280;29470;53.550;9.926;2023-04-24T09:59:32;99635.22;;;16.85;49.65
43824;BME280;29470;53.550;9.926;2023-04-24T10:04:39;99637.06;;;16.56;51.49
43824;BME280;29470;53.550;9.926;2023-04-24T10:09:42;99639.63;;;17.58;49.50
43824;BME280;29470;53.550;9.926;2023-04-24T10:14:45;99646.13;;;17.76;48.70
43824;BME280;29470;53.550;9.926;2023-04-24T10:19:51;99638.34;;;17.80;49.27
43824;BME280;29470;53.550;9.926;2023-04-24T10:24:54;99646.34;;;17.87;48.47
43824;BME280;29470;53.550;9.926;2023-04-24T10:29:58;99646.13;;;17.77;47.44
43824;BME280;29470;53.550;9.926;2023-04-24T10:35:04;99649.19;;;17.21;49.18
43824;BME280;29470;53.550;9.926;2023-04-24T10:40:10;99644.16;;;16.95;50.00
43824;BME280;29470;53.550;9.926;2023-04-24T10:45:17;99643.28;;;16.94;50.21
43824;BME280;29470;53.550;9.926;2023-04-24T10:50:22;99642.03;;;18.29;46.93
43824;BME280;29470;53.550;9.926;2023-04-24T10:55:45;99642.59;;;17.75;47.84
43824;BME280;29470;53.550;9.926;2023-04-24T11:00:56;99646.19;;;17.80;46.24
43824;BME280;29470;53.550;9.926;2023-04-24T11:06:02;99648.38;;;18.42;45.77
43824;BME280;29470;53.550;9.926;2023-04-24T11:11:10;99649.88;;;18.29;45.70
43824;BME280;29470;53.550;9.926;2023-04-24T11:16:14;99645.50;;;18.75;45.24
43824;BME280;29470;53.550;9.926;2023-04-24T11:21:19;99640.16;;;19.15;43.92
43824;BME280;29470;53.550;9.926;2023-04-24T11:26:22;99650.53;;;19.09;43.29
43824;BME280;29470;53.550;9.926;2023-04-24T11:31:36;99636.69;;;18.70;43.48
43824;BME280;29470;53.550;9.926;2023-04-24T11:36:42;99632.88;;;19.00;42.99
43824;BME280;29470;53.550;9.926;2023-04-24T11:41:46;99641.78;;;18.18;44.19
43824;BME280;29470;53.550;9.926;2023-04-24T11:46:49;99646.19;;;18.63;44.14
43824;BME280;29470;53.550;9.926;2023-04-24T11:51:56;99654.81;;;18.13;45.16
43824;BME280;29470;53.550;9.926;2023-04-24T11:57:04;99648.09;;;17.88;45.70
43824;BME280;29470;53.550;9.926;2023-04-24T12:02:08;99649.16;;;18.36;44.86
43824;BME280;29470;53.550;9.926;2023-04-24T12:07:12;99651.94;;;18.02;45.66
43824;BME280;29470;53.550;9.926;2023-04-24T12:12:17;99651.88;;;17.61;46.06
43824;BME280;29470;53.550;9.926;2023-04-24T12:17:24;99648.91;;;18.23;43.94
43824;BME280;29470;53.550;9.926;2023-04-24T12:22:44;99654.38;;;17.55;46.10
43824;BME280;29470;53.550;9.926;2023-04-24T12:27:53;99654.84;;;17.38;46.19
43824;BME280;29470;53.550;9.926;2023-04-24T12:32:56;99660.59;;;17.25;46.82
43824;BME280;29470;53.550;9.926;2023-04-24T12:38:06;99665.31;;;17.04;47.61
43824;BME280;29470;53.550;9.926;2023-04-24T12:43:14;99672.06;;;16.32;50.14
43824;BME280;29470;53.550;9.926;2023-04-24T12:48:18;99672.03;;;16.62;49.35
43824;BME280;29470;53.550;9.926;2023-04-24T12:53:23;99681.94;;;16.74;50.45
43824;BME280;29470;53.550;9.926;2023-04-24T12:58:28;99677.75;;;16.49;50.01
43824;BME280;29470;53.550;9.926;2023-04-24T13:03:31;99680.19;;;16.43;49.96
43824;BME280;29470;53.550;9.926;2023-04-24T13:08:35;99679.84;;;16.01;50.97
43824;BME280;29470;53.550;9.926;2023-04-24T13:13:38;99679.91;;;16.03;51.83
43824;BME280;29470;53.550;9.926;2023-04-24T13:18:42;99680.63;;;16.28;49.63
43824;BME280;29470;53.550;9.926;2023-04-24T13:23:46;99677.03;;;16.55;49.21
43824;BME280;29470;53.550;9.926;2023-04-24T13:28:49;99668.88;;;16.42;50.12
43824;BME280;29470;53.550;9.926;2023-04-24T13:33:52;99674.81;;;16.08;51.17
43824;BME280;29470;53.550;9.926;2023-04-24T13:38:56;99667.44;;;16.23;52.44
43824;BME280;29470;53.550;9.926;2023-04-24T13:44:00;99677.69;;;16.17;52.74
43824;BME280;29470;53.550;9.926;2023-04-24T13:49:02;99671.06;;;16.59;51.43
43824;BME280;29470;53.550;9.926;2023-04-24T13:54:07;99657.78;;;17.17;50.28
43824;BME280;29470;53.550;9.926;2023-04-24T13:59:12;99660.03;;;16.69;50.68
43824;BME280;29470;53.550;9.926;2023-04-24T14:04:18;99654.06;;;17.42;48.67
43824;BME280;29470;53.550;9.926;2023-04-24T14:09:23;99654.94;;;17.07;48.64
43824;BME280;29470;53.550;9.926;2023-04-24T14:14:25;99644.97;;;17.26;48.88
43824;BME280;29470;53.550;9.926;2023-04-24T14:19:28;99649.38;;;16.95;48.86
43824;BME280;29470;53.550;9.926;2023-04-24T14:24:32;99661.34;;;16.23;53.05
43824;BME280;29470;53.550;9.926;2023-04-24T14:29:35;99663.69;;;16.13;56.08
43824;BME280;29470;53.550;9.926;2023-04-24T14:34:38;99678.56;;;15.34;61.46
43824;BME280;29470;53.550;9.926;2023-04-24T14:39:42;99681.47;;;15.15;67.63
43824;BME280;29470;53.550;9.926;2023-04-24T14:44:56;99693.84;;;14.48;72.88
43824;BME280;29470;53.550;9.926;2023-04-24T14:49:59;99699.50;;;14.36;75.10
43824;BME280;29470;53.550;9.926;2023-04-24T14:55:05;99705.53;;;15.08;72.67
43824;BME280;29470;53.550;9.926;2023-04-24T15:00:09;99723.47;;;14.52;77.58
43824;BME280;29470;53.550;9.926;2023-04-24T15:05:12;99719.97;;;14.51;75.97
43824;BME280;29470;53.550;9.926;2023-04-24T15:10:17;99727.91;;;14.32;78.28
43824;BME280;29470;53.550;9.926;2023-04-24T15:15:20;99728.91;;;14.58;76.89
43824;BME280;29470;53.550;9.926;2023-04-24T15:20:23;99733.91;;;14.29;74.66
43824;BME280;29470;53.550;9.926;2023-04-24T15:25:27;99742.84;;;13.90;76.79
43824;BME280;29470;53.550;9.926;2023-04-24T15:30:30;99760.50;;;13.57;79.56
43824;BME280;29470;53.550;9.926;2023-04-24T15:35:33;99767.91;;;13.06;81.76
43824;BME280;29470;53.550;9.926;2023-04-24T15:40:38;99788.81;;;12.90;81.67
43824;BME280;29470;53.550;9.926;2023-04-24T15:45:41;99795.88;;;12.92;80.47
43824;BME280;29470;53.550;9.926;2023-04-24T15:50:44;99799.66;;;12.61;81.23
43824;BME280;29470;53.550;9.926;2023-04-24T15:55:50;99813.81;;;12.12;79.33
43824;BME280;29470;53.550;9.926;2023-04-24T16:00:53;99829.38;;;11.77;81.59
43824;BME280;29470;53.550;9.926;2023-04-24T16:05:56;99846.31;;;11.71;81.90
43824;BME280;29470;53.550;9.926;2023-04-24T16:11:00;99850.66;;;11.88;78.93
43824;BME280;29470;53.550;9.926;2023-04-24T16:16:03;99867.22;;;11.57;80.21
43824;BME280;29470;53.550;9.926;2023-04-24T16:21:07;99879.47;;;11.43;79.51
43824;BME280;29470;53.550;9.926;2023-04-24T16:26:11;99892.31;;;11.58;79.10
43824;BME280;29470;53.550;9.926;2023-04-24T16:31:14;99883.25;;;11.00;79.89
43824;BME280;29470;53.550;9.926;2023-04-24T16:36:17;99900.69;;;11.36;79.72
43824;BME280;29470;53.550;9.926;2023-04-24T16:41:22;99917.19;;;11.38;77.33
43824;BME280;29470;53.550;9.926;2023-04-24T16:46:25;99921.25;;;11.01;80.93
43824;BME280;29470;53.550;9.926;2023-04-24T16:51:28;99925.81;;;11.22;79.79
43824;BME280;29470;53.550;9.926;2023-04-24T16:56:33;99921.66;;;10.93;82.19
43824;BME280;29470;53.550;9.926;2023-04-24T17:01:36;99932.81;;;10.92;82.28
43824;BME280;29470;53.550;9.926;2023-04-24T17:06:39;99926.44;;;11.01;83.45
43824;BME280;29470;53.550;9.926;2023-04-24T17:11:43;99927.06;;;11.29;83.04
43824;BME280;29470;53.550;9.926;2023-04-24T17:16:46;99927.59;;;11.73;83.08
43824;BME280;29470;53.550;9.926;2023-04-24T17:21:50;99925.66;;;11.69;83.26
43824;BME280;29470;53.550;9.926;2023-04-24T17:26:54;99918.22;;;12.10;83.01
43824;BME280;29470;53.550;9.926;2023-04-24T17:32:08;99932.69;;;11.71;83.62
43824;BME280;29470;53.550;9.926;2023-04-24T17:37:11;99929.84;;;12.00;83.52
43824;BME280;29470;53.550;9.926;2023-04-24T17:42:16;99919.75;;;12.22;84.22
43824;BME280;29470;53.550;9.926;2023-04-24T17:47:18;99933.31;;;11.84;83.82
43824;BME280;29470;53.550;9.926;2023-04-24T17:52:22;99927.25;;;12.00;83.42
43824;BME280;29470;53.550;9.926;2023-04-24T17:57:27;99930.47;;;12.12;84.14
43824;BME280;29470;53.550;9.926;2023-04-24T18:02:29;99919.53;;;12.36;82.74
43824;BME280;29470;53.550;9.926;2023-04-24T18:07:32;99928.38;;;12.23;83.84
43824;BME280;29470;53.550;9.926;2023-04-24T18:12:37;99935.69;;;11.62;85.01
43824;BME280;29470;53.550;9.926;2023-04-24T18:17:39;99930.22;;;12.07;84.33
43824;BME280;29470;53.550;9.926;2023-04-24T18:22:42;99935.28;;;12.22;81.73
43824;BME280;29470;53.550;9.926;2023-04-24T18:27:47;99942.22;;;11.72;84.06
43824;BME280;29470;53.550;9.926;2023-04-24T18:32:51;99945.06;;;12.46;80.74
43824;BME280;29470;53.550;9.926;2023-04-24T18:37:54;99951.69;;;11.88;81.85
43824;BME280;29470;53.550;9.926;2023-04-24T18:42:58;99955.94;;;11.70;82.56
43824;BME280;29470;53.550;9.926;2023-04-24T18:48:01;99954.94;;;12.01;80.84
43824;BME280;29470;53.550;9.926;2023-04-24T18:53:05;99962.56;;;11.81;79.46
43824;BME280;29470;53.550;9.926;2023-04-24T18:58:09;99971.03;;;11.78;80.43
43824;BME280;29470;53.550;9.926;2023-04-24T19:03:12;99974.88;;;11.69;81.02
43824;BME280;29470;53.550;9.926;2023-04-24T19:08:15;99977.78;;;11.91;78.68
43824;BME280;29470;53.550;9.926;2023-04-24T19:13:19;99988.63;;;11.84;80.14
43824;BME280;29470;53.550;9.926;2023-04-24T19:18:22;99984.00;;;11.62;81.44
43824;BME280;29470;53.550;9.926;2023-04-24T19:23:26;99985.72;;;11.78;79.91
43824;BME280;29470;53.550;9.926;2023-04-24T19:28:31;99992.13;;;12.36;78.82
43824;BME280;29470;53.550;9.926;2023-04-24T19:33:34;99992.50;;;11.92;80.20
43824;BME280;29470;53.550;9.926;2023-04-24T19:38:37;99992.84;;;11.49;82.51
43824;BME280;29470;53.550;9.926;2023-04-24T19:43:41;99994.13;;;11.90;80.34
43824;BME280;29470;53.550;9.926;2023-04-24T19:48:44;99992.50;;;11.76;80.01
43824;BME280;29470;53.550;9.926;2023-04-24T19:53:47;100001.25;;;11.94;79.53
43824;BME280;29470;53.550;9.926;2023-04-24T19:58:52;99996.13;;;11.79;80.92
43824;BME280;29470;53.550;9.926;2023-04-24T20:03:55;99991.38;;;11.54;80.92
43824;BME280;29470;53.550;9.926;2023-04-24T20:08:58;99990.56;;;11.55;81.47
43824;BME280;29470;53.550;9.926;2023-04-24T20:14:02;99989.91;;;11.92;82.69
43824;BME280;29470;53.550;9.926;2023-04-24T20:19:05;99982.69;;;12.20;80.77
43824;BME280;29470;53.550;9.926;2023-04-24T20:24:08;99984.88;;;11.96;81.15
43824;BME280;29470;53.550;9.926;2023-04-24T20:29:12;99987.84;;;12.02;82.45
43824;BME280;29470;53.550;9.926;2023-04-24T20:34:15;99996.94;;;11.78;83.69
43824;BME280;29470;53.550;9.926;2023-04-24T20:39:18;100003.19;;;11.66;84.83
43824;BME280;29470;53.550;9.926;2023-04-24T20:44:22;99997.00;;;11.30;84.26
43824;BME280;29470;53.550;9.926;2023-04-24T20:49:25;99998.84;;;11.81;83.49
43824;BME280;29470;53.550;9.926;2023-04-24T20:54:28;100001.66;;;11.86;83.05
43824;BME280;29470;53.550;9.926;2023-04-24T20:59:32;100013.13;;;11.74;83.74
43824;BME280;29470;53.550;9.926;2023-04-24T21:04:35;100015.56;;;11.55;84.69
43824;BME280;29470;53.550;9.926;2023-04-24T21:09:40;100015.97;;;11.46;85.54
43824;BME280;29470;53.550;9.926;2023-04-24T21:14:44;100018.06;;;11.37;85.46
43824;BME280;29470;53.550;9.926;2023-04-24T21:19:49;100016.38;;;11.54;85.41
43824;BME280;29470;53.550;9.926;2023-04-24T21:24:52;100014.69;;;11.54;83.46
43824;BME280;29470;53.550;9.926;2023-04-24T21:29:56;100019.06;;;11.55;82.86
43824;BME280;29470;53.550;9.926;2023-04-24T21:34:59;100014.53;;;11.68;84.13
43824;BME280;29470;53.550;9.926;2023-04-24T21:40:02;100018.81;;;11.34;84.60
43824;BME280;29470;53.550;9.926;2023-04-24T21:45:08;100014.69;;;11.71;82.02
43824;BME280;29470;53.550;9.926;2023-04-24T21:50:11;100017.84;;;11.98;81.99
43824;BME280;29470;53.550;9.926;2023-04-24T21:55:14;100025.16;;;11.24;82.74
43824;BME280;29470;53.550;9.926;2023-04-24T22:00:19;100037.84;;;11.68;83.54
43824;BME280;29470;53.550;9.926;2023-04-24T22:05:21;100023.47;;;12.06;80.30
43824;BME280;29470;53.550;9.926;2023-04-24T22:10:25;100029.47;;;11.57;81.45
43824;BME280;29470;53.550;9.926;2023-04-24T22:15:30;100024.38;;;11.42;82.72
43824;BME280;29470;53.550;9.926;2023-04-24T22:20:33;100021.81;;;11.91;81.99
43824;BME280;29470;53.550;9.926;2023-04-24T22:25:35;100040.97;;;10.82;85.17
43824;BME280;29470;53.550;9.926;2023-04-24T22:30:39;100032.41;;;11.79;83.70
43824;BME280;29470;53.550;9.926;2023-04-24T22:35:42;100028.53;;;11.71;84.33
43824;BME280;29470;53.550;9.926;2023-04-24T22:40:45;100038.09;;;11.89;80.66
43824;BME280;29470;53.550;9.926;2023-04-24T22:45:49;100045.00;;;11.24;84.80
43824;BME280;29470;53.550;9.926;2023-04-24T22:50:52;100037.91;;;11.53;83.46
43824;BME280;29470;53.550;9.926;2023-04-24T22:55:56;100042.28;;;11.37;85.31
43824;BME280;29470;53.550;9.926;2023-04-24T23:01:00;100033.91;;;11.26;85.43
43824;BME280;29470;53.550;9.926;2023-04-24T23:06:03;100037.81;;;11.51;83.82
43824;BME280;29470;53.550;9.926;2023-04-24T23:11:06;100043.91;;;11.85;81.94
43824;BME280;29470;53.550;9.926;2023-04-24T23:16:11;100046.66;;;11.88;82.22
43824;BME280;29470;53.550;9.926;2023-04-24T23:21:14;100036.09;;;12.00;83.42
43824;BME280;29470;53.550;9.926;2023-04-24T23:26:17;100052.78;;;11.57;84.03
43824;BME280;29470;53.550;9.926;2023-04-24T23:31:21;100049.06;;;11.52;84.98
43824;BME280;29470;53.550;9.926;2023-04-24T23:36:24;100047.63;;;11.40;85.11
43824;BME280;29470;53.550;9.926;2023-04-24T23:41:27;100049.94;;;11.35;84.97
43824;BME280;29470;53.550;9.926;2023-04-24T23:46:31;100044.47;;;11.46;85.07
43824;BME280;29470;53.550;9.926;2023-04-24T23:51:34;100046.66;;;11.23;87.17
43824;BME280;29470;53.550;9.926;2023-04-24T23:56:37;100049.06;;;10.88;86.95
